Terminal Aerodrome Forecast
Issued by NWS

Home | Current Version | Previous Version | Text Only | Print | Product List | Glossary On
Versions: 1 2 3 4 5 6 7 8 9 10 11 12 13 14 15 16 17 18 19 20 21 22 23 24 25 26
000
FTAK31 PANC 310802 AAA
TAFADL
TAF AMD
PADL 310802Z 3108/0106 20008KT P6SM -RA BKN011 OVC020
     FM311100 19010KT 4SM -RA BR BKN007 OVC015
     FM311900 20011G18KT 6SM -RA BKN015 OVC025=

USA.gov is the U.S. government's official web portal to all federal, state and local government web resources and services.